Time;durP1;ratioP1;P1;durP2;ratioP2;P2;SDS_P1;SDS_P2;PMS_P1;PMS_P2;Temp;Humidity;BMP_temperature;BMP_pressure;BME280_temperature;BME280_humidity;BME280_pressure;Samples;Min_cycle;Max_cycle;Signal;HPM_P1;HPM_P2
2023/01/27 14:53:10;;;;;;;;;;;;;;;;;;5044055;28;20560;-37
2023/01/27 14:55:36;;;;;;;;;;;;;;;;;;5024417;28;160077;-37
2023/01/27 15:00:05;;;;;;;;;;;;;;;;;;5070478;28;20377;-33
2023/01/27 15:05:11;;;;;;;;;;;;;;;;;;5095402;27;20385;-35
2023/01/27 15:07:56;;;;;;;13.17;6.73;;;;;;;;;;5087619;28;20417;-37
2023/01/27 15:10:27;;;;;;;11.07;6.57;;;;;;;;;;5092474;28;20269;-35
2023/01/27 15:12:53;;;;;;;11.63;6.60;;;;;;;;;;5100301;28;20192;-35
2023/01/27 15:15:32;;;;;;;17.00;7.30;;;;;;;;;;5088067;28;20196;-38
2023/01/27 15:18:17;;;;;;;17.80;6.97;;;;;;;;;;5091302;28;20208;-35
2023/01/27 15:20:47;;;;;;;18.33;6.13;;;;;;;;;;5070141;28;20260;-42
2023/01/27 15:23:16;;;;;;;15.73;7.47;;;;;;;;;;5037975;28;20237;-35
2023/01/27 15:25:42;;;;;;;;;;;;;;;;;;5047462;28;20216;-56
2023/01/27 15:28:12;;;;;;;21.97;7.20;;;;;;;;;;5047325;28;20386;-36
2023/01/27 15:30:39;;;;;;;11.90;6.03;;;;;;;;;;5059997;28;20440;-37
2023/01/27 15:33:35;;;;;;;10.07;6.40;;;;;;;;;;5074261;28;20190;-36
2023/01/27 15:36:15;;;;;;;20.37;6.87;;;;;;;;;;5028155;28;20207;-36
2023/01/27 15:38:41;;;;;;;18.03;6.97;;;;;;;;;;5048523;28;20202;-37
2023/01/27 15:41:10;;;;;;;15.30;7.27;;;;;;;;;;5047788;28;20201;-36
2023/01/27 15:43:39;;;;;;;15.93;5.70;;;19.10;67.90;;;;;;5043659;28;20041;-46
2023/01/27 15:46:32;;;;;;;13.07;6.35;;;19.10;68.90;;;;;;5048185;28;20463;-34
2023/01/27 15:51:04;;;;;;;9.48;8.57;;;19.30;54.80;;;;;;5075077;27;20424;-65
2023/01/27 15:54:41;;;;;;;8.17;7.37;;;16.20;41.20;;;;;;6259197;28;80830;-63
2023/01/27 15:57:42;;;;;;;9.65;8.73;;;11.90;46.90;;;;;;6259102;28;20513;-63
2023/01/27 16:00:50;;;;;;;10.10;9.10;;;9.00;51.40;;;;;;6245194;28;20299;-64
2023/01/27 16:04:02;;;;;;;11.90;10.70;;;6.70;56.70;;;;;;6243095;28;20242;-64
2023/01/27 16:07:04;;;;;;;12.27;10.37;;;4.90;63.00;;;;;;6232312;28;20195;-63
2023/01/27 16:10:12;;;;;;;16.10;12.97;;;3.70;67.30;;;;;;6239558;28;20186;-63
2023/01/27 16:13:28;;;;;;;12.70;10.87;;;2.80;72.70;;;;;;6241196;28;20209;-63
2023/01/27 16:16:30;;;;;;;12.60;9.13;;;2.20;74.70;;;;;;6239782;28;20208;-62
2023/01/27 16:19:43;;;;;;;14.77;10.87;;;1.80;76.00;;;;;;6240694;28;20227;-63
2023/01/27 16:22:46;;;;;;;16.33;11.93;;;1.40;77.80;;;;;;6237694;28;20191;-64
2023/01/27 16:25:53;;;;;;;16.93;12.10;;;1.20;80.40;;;;;;6254838;28;20192;-63
2023/01/27 16:29:22;;;;;;;16.20;11.57;;;1.00;80.90;;;;;;6239439;28;20223;-65
2023/01/27 16:32:29;;;;;;;17.27;12.70;;;0.80;80.80;;;;;;6280523;28;20306;-65
2023/01/27 16:35:43;;;;;;;20.08;14.15;;;0.60;82.50;;;;;;6255759;28;20418;-68
2023/01/27 16:38:46;;;;;;;19.50;13.33;;;0.60;82.30;;;;;;6262439;28;20196;-69
2023/01/27 16:41:55;;;;;;;19.33;14.07;;;0.50;84.50;;;;;;6277454;28;20187;-67
2023/01/27 16:45:00;;;;;;;23.17;14.93;;;0.30;85.50;;;;;;6236906;28;20189;-63
2023/01/27 16:48:05;;;;;;;20.13;13.50;;;0.30;86.10;;;;;;6231194;28;20255;-64
2023/01/27 16:51:26;;;;;;;18.87;13.60;;;0.10;86.40;;;;;;6246643;28;20277;-64
2023/01/27 16:54:44;;;;;;;19.60;13.33;;;0.10;86.70;;;;;;6253462;28;20242;-66
2023/01/27 16:57:45;;;;;;;19.50;12.83;;;0.10;87.20;;;;;;6252147;28;20183;-66
2023/01/27 17:00:49;;;;;;;19.90;13.40;;;0.10;86.10;;;;;;6229133;28;20362;-66
2023/01/27 17:03:57;;;;;;;19.60;12.50;;;0.10;87.50;;;;;;6228522;28;20227;-66
2023/01/27 17:07:11;;;;;;;19.00;13.33;;;0.10;87.10;;;;;;6227590;28;20195;-66
2023/01/27 17:10:14;;;;;;;22.30;13.50;;;0.00;86.80;;;;;;6232129;28;20202;-66
2023/01/27 17:13:26;;;;;;;19.80;13.33;;;0.00;87.50;;;;;;6251246;28;20206;-66
2023/01/27 17:16:35;;;;;;;19.77;12.80;;;0.00;86.70;;;;;;6226055;28;20238;-66
2023/01/27 17:19:36;;;;;;;21.73;13.80;;;0.00;88.00;;;;;;6215203;28;20242;-66
2023/01/27 17:22:40;;;;;;;20.73;15.17;;;0.00;87.40;;;;;;6247500;28;20202;-66
2023/01/27 17:25:41;;;;;;;18.57;13.50;;;0.00;87.50;;;;;;6257477;28;20230;-66
2023/01/27 17:28:44;;;;;;;23.87;15.30;;;0.00;88.00;;;;;;6242912;28;20195;-66
2023/01/27 17:31:45;;;;;;;25.57;16.27;;;0.00;87.40;;;;;;6259270;28;20197;-66
2023/01/27 17:34:50;;;;;;;25.13;14.77;;;0.00;87.60;;;;;;6213874;28;20203;-66
2023/01/27 17:38:13;;;;;;;23.07;14.70;;;-0.10;87.80;;;;;;6226833;28;20275;-66
2023/01/27 17:41:27;;;;;;;25.95;19.08;;;-0.10;88.30;;;;;;6225571;28;20470;-66
2023/01/27 17:44:28;;;;;;;24.27;15.97;;;-0.10;88.40;;;;;;6248463;28;20217;-67
2023/01/27 17:47:29;;;;;;;24.03;15.63;;;-0.10;88.40;;;;;;6218951;28;20186;-66
2023/01/27 17:50:36;;;;;;;24.00;16.43;;;-0.10;88.60;;;;;;6215685;28;20184;-66
2023/01/27 17:53:40;;;;;;;24.30;15.13;;;-0.20;89.10;;;;;;6228254;28;20228;-65
2023/01/27 17:56:40;;;;;;;26.70;20.30;;;-0.10;89.30;;;;;;6225942;28;20500;-66
2023/01/27 17:59:47;;;;;;;23.83;16.97;;;-0.10;89.20;;;;;;6242740;28;20213;-63
2023/01/27 18:03:04;;;;;;;23.10;14.63;;;-0.10;89.00;;;;;;6255957;28;20198;-64
2023/01/27 18:06:09;;;;;;;20.87;14.27;;;-0.10;89.60;;;;;;6246449;28;20194;-65
2023/01/27 18:09:43;;;;;;;28.73;17.67;;;-0.10;89.00;;;;;;6211107;28;20221;-64
2023/01/27 18:12:47;;;;;;;22.07;14.07;;;-0.10;89.20;;;;;;6211027;28;20222;-65
2023/01/27 18:16:08;;;;;;;19.17;13.87;;;-0.10;87.50;;;;;;6227591;28;20220;-66
2023/01/27 18:19:21;;;;;;;23.10;14.47;;;-0.20;88.30;;;;;;6245011;28;20187;-66
2023/01/27 18:22:27;;;;;;;22.90;14.40;;;-0.10;88.00;;;;;;6222170;28;20191;-70
2023/01/27 18:25:27;;;;;;;20.00;14.20;;;-0.20;87.60;;;;;;6255631;28;20234;-70
2023/01/27 18:28:33;;;;;;;21.37;14.63;;;-0.20;87.50;;;;;;6209502;28;20200;-65
2023/01/27 18:31:43;;;;;;;23.20;14.10;;;-0.30;88.80;;;;;;6233804;28;20278;-65
2023/01/27 18:34:56;;;;;;;23.17;14.93;;;-0.30;88.70;;;;;;6220201;28;20201;-65
2023/01/27 18:38:22;;;;;;;20.83;14.03;;;-0.30;88.50;;;;;;6232326;28;20273;-64
2023/01/27 18:41:27;;;;;;;27.77;15.77;;;-0.30;88.40;;;;;;6231306;28;20189;-65
2023/01/27 18:44:35;;;;;;;20.93;13.97;;;-0.20;88.90;;;;;;6227300;28;20191;-65
2023/01/27 18:47:37;;;;;;;21.50;15.40;;;-0.20;88.90;;;;;;6169036;28;20246;-66
2023/01/27 18:50:41;;;;;;;26.43;18.37;;;-0.20;89.10;;;;;;6239693;28;20205;-66
2023/01/27 18:53:42;;;;;;;26.67;16.60;;;-0.20;89.10;;;;;;6215293;28;20246;-65
2023/01/27 18:56:43;;;;;;;23.87;16.53;;;-0.20;88.50;;;;;;6207814;28;20214;-66
2023/01/27 18:59:44;;;;;;;26.10;16.37;;;-0.20;88.90;;;;;;6231206;28;20189;-66
2023/01/27 19:02:48;;;;;;;28.57;17.90;;;-0.20;89.50;;;;;;6211776;28;20290;-65
2023/01/27 19:05:50;;;;;;;26.20;16.53;;;-0.20;88.70;;;;;;6216230;28;20199;-65
2023/01/27 19:08:51;;;;;;;24.00;15.83;;;-0.10;89.00;;;;;;6210045;28;20226;-65
2023/01/27 19:11:55;;;;;;;30.87;18.60;;;-0.10;89.10;;;;;;6223570;28;20191;-65
2023/01/27 19:14:56;;;;;;;27.97;17.70;;;-0.20;89.90;;;;;;6218005;28;20201;-65
2023/01/27 19:17:59;;;;;;;22.33;15.83;;;-0.10;89.20;;;;;;6212622;28;20199;-65
2023/01/27 19:21:00;;;;;;;26.37;16.10;;;-0.20;88.80;;;;;;6224651;28;20195;-65
2023/01/27 19:24:01;;;;;;;23.43;15.53;;;-0.10;89.20;;;;;;6247731;28;20203;-66
2023/01/27 19:27:03;;;;;;;24.57;16.03;;;-0.10;89.00;;;;;;6207154;28;20198;-65
2023/01/27 19:30:31;;;;;;;22.87;15.63;;;-0.20;88.60;;;;;;6197816;28;20198;-66
2023/01/27 19:33:35;;;;;;;24.37;14.60;;;-0.10;89.20;;;;;;6232404;28;20250;-65
2023/01/27 19:36:42;;;;;;;23.13;14.70;;;-0.10;89.20;;;;;;6203802;28;20242;-65
2023/01/27 19:39:47;;;;;;;22.73;16.33;;;-0.10;88.50;;;;;;6218812;28;20243;-68
2023/01/27 19:42:48;;;;;;;20.73;13.40;;;-0.10;88.70;;;;;;6220160;28;20192;-67
2023/01/27 19:45:52;;;;;;;25.30;15.93;;;-0.10;89.00;;;;;;6207359;28;20206;-66
2023/01/27 19:48:53;;;;;;;26.10;16.87;;;-0.10;89.60;;;;;;6211969;28;20221;-66
2023/01/27 19:51:54;;;;;;;23.27;14.50;;;-0.10;89.50;;;;;;6227895;28;20251;-65
2023/01/27 19:54:55;;;;;;;23.77;15.17;;;-0.20;89.10;;;;;;6249068;28;20280;-66
2023/01/27 19:57:56;;;;;;;22.27;15.13;;;-0.10;89.70;;;;;;6215635;28;20201;-67
2023/01/27 20:00:58;;;;;;;23.23;15.23;;;-0.10;89.70;;;;;;6211991;28;20204;-67
2023/01/27 20:03:58;;;;;;;18.37;12.57;;;-0.10;90.00;;;;;;6213542;28;20198;-67
2023/01/27 20:06:59;;;;;;;23.27;15.67;;;-0.10;89.50;;;;;;6224971;28;20233;-66
2023/01/27 20:10:01;;;;;;;24.23;16.33;;;-0.10;89.40;;;;;;6213255;28;20271;-67
2023/01/27 20:13:04;;;;;;;23.27;14.47;;;-0.10;89.40;;;;;;6253962;28;20214;-66
2023/01/27 20:16:06;;;;;;;23.40;16.00;;;-0.10;89.70;;;;;;6256320;28;20187;-66
2023/01/27 20:19:07;;;;;;;24.70;16.27;;;-0.10;88.70;;;;;;6227486;28;20201;-66
2023/01/27 20:22:11;;;;;;;22.53;16.37;;;-0.10;88.90;;;;;;6247556;28;20199;-66
2023/01/27 20:25:15;;;;;;;23.03;16.40;;;-0.10;88.80;;;;;;6223313;28;20195;-67
2023/01/27 20:28:16;;;;;;;22.87;15.73;;;-0.10;89.00;;;;;;6227513;28;20190;-67
2023/01/27 20:31:19;;;;;;;25.90;15.83;;;-0.10;89.20;;;;;;6223348;28;20255;-66
2023/01/27 20:34:20;;;;;;;26.80;16.90;;;-0.10;89.00;;;;;;6223041;28;20235;-67
2023/01/27 20:37:21;;;;;;;26.03;17.47;;;-0.10;89.00;;;;;;6206875;28;20279;-67
2023/01/27 20:40:24;;;;;;;23.47;15.60;;;-0.20;88.90;;;;;;6221553;28;20198;-66
2023/01/27 20:43:25;;;;;;;29.20;17.80;;;-0.20;89.60;;;;;;6261005;28;20249;-66
2023/01/27 20:46:28;;;;;;;27.77;18.03;;;-0.20;89.70;;;;;;6190344;28;20199;-66
2023/01/27 20:49:29;;;;;;;26.67;18.57;;;-0.20;89.90;;;;;;6227634;28;20191;-67
2023/01/27 20:52:30;;;;;;;25.70;16.77;;;-0.20;89.60;;;;;;6211172;28;20242;-67
2023/01/27 20:55:31;;;;;;;29.13;18.20;;;-0.10;89.60;;;;;;6217737;28;20190;-67
2023/01/27 20:58:31;;;;;;;29.67;19.27;;;-0.20;89.80;;;;;;6221903;28;20261;-67
2023/01/27 21:01:34;;;;;;;26.77;18.27;;;-0.20;89.10;;;;;;6227626;28;20191;-67
2023/01/27 21:04:35;;;;;;;27.50;18.40;;;-0.10;87.50;;;;;;6256697;28;20197;-67
2023/01/27 21:07:36;;;;;;;26.07;17.77;;;-0.20;88.00;;;;;;6243356;28;20199;-67
2023/01/27 21:10:37;;;;;;;28.23;19.90;;;-0.20;88.30;;;;;;6214719;28;20236;-68
2023/01/27 21:13:38;;;;;;;27.57;17.63;;;-0.20;89.00;;;;;;6220202;28;20309;-68
2023/01/27 21:16:40;;;;;;;29.87;19.90;;;-0.20;89.10;;;;;;6234290;28;20227;-68
2023/01/27 21:19:41;;;;;;;28.20;17.27;;;-0.20;89.40;;;;;;6217679;28;20188;-68
2023/01/27 21:22:44;;;;;;;25.30;17.47;;;-0.20;88.70;;;;;;6217348;28;20195;-68
2023/01/27 21:25:44;;;;;;;29.20;18.23;;;-0.20;87.90;;;;;;6218665;28;20215;-68
2023/01/27 21:28:46;;;;;;;32.23;19.80;;;-0.20;88.50;;;;;;6214481;28;20187;-68
2023/01/27 21:31:47;;;;;;;25.43;17.40;;;-0.20;88.30;;;;;;6236747;28;20248;-68
2023/01/27 21:34:48;;;;;;;27.33;17.37;;;-0.20;87.80;;;;;;6216822;28;20238;-68
2023/01/27 21:37:49;;;;;;;26.37;16.57;;;-0.20;87.70;;;;;;6215101;28;20205;-68
2023/01/27 21:40:51;;;;;;;25.07;17.37;;;-0.20;88.20;;;;;;6217870;28;20203;-68
2023/01/27 21:47:17;;;;;;;22.87;14.30;;;-0.30;87.50;;;;;;6240198;28;20188;-68
2023/01/27 21:50:17;;;;;;;23.73;16.33;;;-0.30;87.50;;;;;;6222610;28;20215;-68
2023/01/27 21:53:18;;;;;;;24.83;16.13;;;-0.30;87.20;;;;;;6209712;28;20238;-68
2023/01/27 21:56:19;;;;;;;20.97;15.80;;;-0.40;86.70;;;;;;6243314;28;20198;-68
2023/01/27 21:59:19;;;;;;;23.23;16.53;;;-0.30;87.30;;;;;;6203049;28;20203;-67
2023/01/27 22:02:21;;;;;;;24.23;17.13;;;-0.30;88.00;;;;;;6211682;28;20285;-67
2023/01/27 22:05:22;;;;;;;24.43;16.13;;;-0.30;88.60;;;;;;6204342;28;20196;-67
2023/01/27 22:08:23;;;;;;;24.23;17.23;;;-0.30;87.70;;;;;;6217803;28;20195;-67
2023/01/27 22:11:24;;;;;;;27.37;18.20;;;-0.20;87.50;;;;;;6215835;28;20194;-67
2023/01/27 22:14:26;;;;;;;22.73;16.13;;;-0.20;87.50;;;;;;6209239;28;20219;-67
2023/01/27 22:17:27;;;;;;;21.87;15.37;;;-0.20;86.70;;;;;;6225972;28;20210;-67
2023/01/27 22:20:28;;;;;;;26.63;17.13;;;-0.30;86.90;;;;;;6207566;28;20191;-67
2023/01/27 22:23:29;;;;;;;24.30;16.83;;;-0.30;86.50;;;;;;6220415;28;20194;-67
2023/01/27 22:26:29;;;;;;;26.47;17.67;;;-0.30;87.60;;;;;;6248305;28;20277;-67
2023/01/27 22:29:30;;;;;;;24.47;15.97;;;-0.30;87.10;;;;;;6212645;28;20216;-67
2023/01/27 22:32:31;;;;;;;23.83;15.10;;;-0.30;86.70;;;;;;6235441;28;20214;-67
2023/01/27 22:35:31;;;;;;;24.50;16.37;;;-0.30;87.50;;;;;;6243296;28;20198;-67
2023/01/27 22:38:36;;;;;;;23.77;16.60;;;-0.40;87.20;;;;;;6213547;28;20188;-67
2023/01/27 22:41:37;;;;;;;25.03;16.00;;;-0.40;87.80;;;;;;6228453;28;20199;-67
2023/01/27 22:44:37;;;;;;;30.73;18.43;;;-0.40;86.80;;;;;;6240241;28;20194;-67
2023/01/27 22:47:38;;;;;;;28.23;18.73;;;-0.40;87.10;;;;;;6207583;28;20188;-67
2023/01/27 22:50:39;;;;;;;24.83;17.43;;;-0.40;88.10;;;;;;6220010;28;20255;-67
2023/01/27 22:53:40;;;;;;;26.07;17.23;;;-0.40;86.70;;;;;;6231428;28;20250;-67
2023/01/27 22:56:42;;;;;;;22.10;16.10;;;-0.40;87.10;;;;;;6219417;28;20190;-67
2023/01/27 22:59:42;;;;;;;26.30;17.33;;;-0.40;86.60;;;;;;6215820;28;20277;-67
2023/01/27 23:02:43;;;;;;;25.30;17.27;;;-0.50;87.50;;;;;;6249196;28;20186;-67
2023/01/27 23:05:44;;;;;;;23.03;15.00;;;-0.40;87.80;;;;;;6216607;28;20183;-67
2023/01/27 23:08:44;;;;;;;23.30;15.17;;;-0.40;87.60;;;;;;6222355;28;20196;-67
2023/01/27 23:11:45;;;;;;;25.67;16.03;;;-0.40;87.80;;;;;;6208950;28;20198;-67
2023/01/27 23:14:46;;;;;;;25.03;17.03;;;-0.30;88.10;;;;;;6215112;28;20210;-67
2023/01/27 23:17:47;;;;;;;27.77;16.50;;;-0.30;88.20;;;;;;6213530;28;20191;-67
2023/01/27 23:20:48;;;;;;;27.33;18.47;;;-0.30;87.70;;;;;;6229119;28;20193;-67
2023/01/27 23:23:49;;;;;;;25.40;14.90;;;-0.30;88.40;;;;;;6258686;28;20194;-67
2023/01/27 23:26:50;;;;;;;23.50;14.57;;;-0.30;88.20;;;;;;6210981;28;20196;-67
2023/01/27 23:29:51;;;;;;;22.13;16.13;;;-0.30;87.90;;;;;;6208996;28;20187;-67
2023/01/27 23:32:54;;;;;;;29.40;20.00;;;-0.30;87.20;;;;;;6222912;28;20206;-67
2023/01/27 23:35:56;;;;;;;31.13;17.20;;;-0.30;88.40;;;;;;6223455;28;20274;-67
2023/01/27 23:38:57;;;;;;;26.30;17.30;;;-0.30;88.50;;;;;;6251812;28;20191;-67
2023/01/27 23:41:58;;;;;;;26.70;17.10;;;-0.30;88.50;;;;;;6240502;28;20206;-67
2023/01/27 23:44:58;;;;;;;27.77;17.80;;;-0.30;88.00;;;;;;6209879;28;20191;-67
2023/01/27 23:47:59;;;;;;;24.90;15.80;;;-0.30;88.60;;;;;;6207374;28;20274;-68
2023/01/27 23:51:08;;;;;;;25.67;17.13;;;-0.30;88.20;;;;;;6210683;28;20218;-68
2023/01/27 23:54:09;;;;;;;27.40;18.43;;;-0.30;88.00;;;;;;6222558;28;20238;-68
2023/01/27 23:57:09;;;;;;;25.80;17.10;;;-0.30;88.00;;;;;;6240122;28;20183;-67
